Tahawus, New York
Current Conditions -  °F | °C
As of 10:51 AM on Saturday 25 Oct 2014 (Local Time) from KSLK Reporting Station
Overcast Overcast  
Wind Chill: 38°   Ceiling: 2800
Heat Index: 43°   Visibility: 10mi
Dew Point: 40°   Wind: 8mph
Humidity: 89%   Direction: 220°SW
Pressure: 29.71"   Gusts: NA
Location:  44.0508°N, 74.0396°W
Report Text: KSLK 251451Z AUTO 22007KT 10SM FEW008 BKN028 OVC034 06/04 A2971 RMK AO2 SLP072 T00610044 58016
Loading
Personal Weather Stations






























Interactive Weather Map New forecast layout! Learn more

10-Day Weather Forecast

Advertisements
Track Severe Weather on mobile